sensor_id;sensor_type;location;lat;lon;timestamp;P1;durP1;ratioP1;P2;durP2;ratioP2
46365;SDS011;32073;49.166;8.076;2022-09-27T00:00:08;0.82;;;0.30;;
46365;SDS011;32073;49.166;8.076;2022-09-27T00:04:10;0.20;;;0.20;;
46365;SDS011;32073;49.166;8.076;2022-09-27T00:08:11;1.77;;;0.30;;
46365;SDS011;32073;49.166;8.076;2022-09-27T00:12:13;0.20;;;0.20;;
46365;SDS011;32073;49.166;8.076;2022-09-27T00:16:14;0.45;;;0.30;;
46365;SDS011;32073;49.166;8.076;2022-09-27T00:20:15;0.40;;;0.35;;
46365;SDS011;32073;49.166;8.076;2022-09-27T00:24:17;0.45;;;0.32;;
46365;SDS011;32073;49.166;8.076;2022-09-27T00:28:20;0.57;;;0.45;;
46365;SDS011;32073;49.166;8.076;2022-09-27T00:32:21;0.82;;;0.40;;
46365;SDS011;32073;49.166;8.076;2022-09-27T00:36:22;1.35;;;0.40;;
46365;SDS011;32073;49.166;8.076;2022-09-27T00:40:24;0.25;;;0.25;;
46365;SDS011;32073;49.166;8.076;2022-09-27T00:48:28;0.60;;;0.30;;
46365;SDS011;32073;49.166;8.076;2022-09-27T00:52:42;0.30;;;0.20;;
46365;SDS011;32073;49.166;8.076;2022-09-27T00:56:54;0.80;;;0.30;;
46365;SDS011;32073;49.166;8.076;2022-09-27T01:00:57;1.45;;;0.68;;
46365;SDS011;32073;49.166;8.076;2022-09-27T01:05:03;2.42;;;0.88;;
46365;SDS011;32073;49.166;8.076;2022-09-27T01:09:07;2.80;;;0.80;;
46365;SDS011;32073;49.166;8.076;2022-09-27T01:13:12;3.03;;;0.70;;
46365;SDS011;32073;49.166;8.076;2022-09-27T01:32:15;1.92;;;0.77;;
46365;SDS011;32073;49.166;8.076;2022-09-27T01:45:34;1.15;;;0.60;;
46365;SDS011;32073;49.166;8.076;2022-09-27T01:50:00;1.73;;;0.57;;
46365;SDS011;32073;49.166;8.076;2022-09-27T01:54:26;3.47;;;0.85;;
46365;SDS011;32073;49.166;8.076;2022-09-27T02:07:01;2.75;;;0.73;;
46365;SDS011;32073;49.166;8.076;2022-09-27T02:11:16;4.22;;;0.70;;
46365;SDS011;32073;49.166;8.076;2022-09-27T02:15:17;2.50;;;0.73;;
46365;SDS011;32073;49.166;8.076;2022-09-27T02:23:52;0.70;;;0.45;;
46365;SDS011;32073;49.166;8.076;2022-09-27T02:28:31;3.60;;;0.80;;
46365;SDS011;32073;49.166;8.076;2022-09-27T02:32:34;2.60;;;0.50;;
46365;SDS011;32073;49.166;8.076;2022-09-27T02:36:35;1.27;;;0.63;;
46365;SDS011;32073;49.166;8.076;2022-09-27T02:40:41;3.17;;;0.70;;
46365;SDS011;32073;49.166;8.076;2022-09-27T02:44:44;1.92;;;0.57;;
46365;SDS011;32073;49.166;8.076;2022-09-27T03:06:27;2.28;;;1.00;;
46365;SDS011;32073;49.166;8.076;2022-09-27T03:10:29;2.65;;;1.00;;
46365;SDS011;32073;49.166;8.076;2022-09-27T03:14:30;3.45;;;0.82;;
46365;SDS011;32073;49.166;8.076;2022-09-27T03:18:31;2.03;;;0.80;;
46365;SDS011;32073;49.166;8.076;2022-09-27T03:22:32;3.30;;;0.75;;
46365;SDS011;32073;49.166;8.076;2022-09-27T03:26:34;2.05;;;0.60;;
46365;SDS011;32073;49.166;8.076;2022-09-27T03:30:35;1.80;;;0.60;;
46365;SDS011;32073;49.166;8.076;2022-09-27T03:34:36;2.45;;;0.65;;
46365;SDS011;32073;49.166;8.076;2022-09-27T03:38:37;1.60;;;0.50;;
46365;SDS011;32073;49.166;8.076;2022-09-27T03:42:38;1.70;;;0.50;;
46365;SDS011;32073;49.166;8.076;2022-09-27T03:46:38;1.73;;;0.57;;
46365;SDS011;32073;49.166;8.076;2022-09-27T03:50:39;2.97;;;0.85;;
46365;SDS011;32073;49.166;8.076;2022-09-27T03:54:40;2.40;;;0.50;;
46365;SDS011;32073;49.166;8.076;2022-09-27T03:58:41;1.75;;;0.60;;
46365;SDS011;32073;49.166;8.076;2022-09-27T04:02:42;1.33;;;0.50;;
46365;SDS011;32073;49.166;8.076;2022-09-27T04:06:43;1.10;;;0.47;;
46365;SDS011;32073;49.166;8.076;2022-09-27T04:10:44;1.38;;;0.50;;
46365;SDS011;32073;49.166;8.076;2022-09-27T04:14:45;0.73;;;0.40;;
46365;SDS011;32073;49.166;8.076;2022-09-27T04:18:46;0.70;;;0.40;;
46365;SDS011;32073;49.166;8.076;2022-09-27T04:22:46;0.70;;;0.38;;
46365;SDS011;32073;49.166;8.076;2022-09-27T04:26:47;3.08;;;0.57;;
46365;SDS011;32073;49.166;8.076;2022-09-27T04:30:48;0.75;;;0.47;;
46365;SDS011;32073;49.166;8.076;2022-09-27T04:34:48;1.58;;;0.40;;
46365;SDS011;32073;49.166;8.076;2022-09-27T04:43:09;2.78;;;0.50;;
46365;SDS011;32073;49.166;8.076;2022-09-27T04:47:10;1.50;;;0.52;;
46365;SDS011;32073;49.166;8.076;2022-09-27T04:51:10;0.88;;;0.30;;
46365;SDS011;32073;49.166;8.076;2022-09-27T04:55:11;0.88;;;0.60;;
46365;SDS011;32073;49.166;8.076;2022-09-27T04:59:12;1.58;;;0.50;;
46365;SDS011;32073;49.166;8.076;2022-09-27T05:03:13;1.40;;;0.40;;
46365;SDS011;32073;49.166;8.076;2022-09-27T05:07:14;2.92;;;0.50;;
46365;SDS011;32073;49.166;8.076;2022-09-27T05:11:14;4.10;;;0.70;;
46365;SDS011;32073;49.166;8.076;2022-09-27T05:15:15;2.15;;;0.80;;
46365;SDS011;32073;49.166;8.076;2022-09-27T05:19:16;3.45;;;0.90;;
46365;SDS011;32073;49.166;8.076;2022-09-27T05:23:17;2.25;;;0.80;;
46365;SDS011;32073;49.166;8.076;2022-09-27T05:27:19;2.45;;;0.50;;
46365;SDS011;32073;49.166;8.076;2022-09-27T05:31:19;4.43;;;2.80;;
46365;SDS011;32073;49.166;8.076;2022-09-27T05:35:20;1.67;;;1.27;;
46365;SDS011;32073;49.166;8.076;2022-09-27T05:39:22;3.13;;;1.58;;
46365;SDS011;32073;49.166;8.076;2022-09-27T05:43:22;2.22;;;1.05;;
46365;SDS011;32073;49.166;8.076;2022-09-27T05:47:24;2.65;;;0.80;;
46365;SDS011;32073;49.166;8.076;2022-09-27T05:51:24;2.28;;;0.52;;
46365;SDS011;32073;49.166;8.076;2022-09-27T05:55:25;0.98;;;0.65;;
46365;SDS011;32073;49.166;8.076;2022-09-27T05:59:26;2.53;;;1.15;;
46365;SDS011;32073;49.166;8.076;2022-09-27T06:03:27;8.73;;;4.53;;
46365;SDS011;32073;49.166;8.076;2022-09-27T06:07:29;5.70;;;3.20;;
46365;SDS011;32073;49.166;8.076;2022-09-27T06:11:31;3.25;;;0.93;;
46365;SDS011;32073;49.166;8.076;2022-09-27T06:15:32;0.82;;;0.40;;
46365;SDS011;32073;49.166;8.076;2022-09-27T06:19:36;1.00;;;0.50;;
46365;SDS011;32073;49.166;8.076;2022-09-27T06:23:37;0.57;;;0.30;;
46365;SDS011;32073;49.166;8.076;2022-09-27T06:27:41;1.02;;;0.50;;
46365;SDS011;32073;49.166;8.076;2022-09-27T06:31:44;2.20;;;0.68;;
46365;SDS011;32073;49.166;8.076;2022-09-27T06:36:12;5.22;;;2.83;;
46365;SDS011;32073;49.166;8.076;2022-09-27T06:40:13;5.53;;;2.25;;
46365;SDS011;32073;49.166;8.076;2022-09-27T06:44:14;2.28;;;0.80;;
46365;SDS011;32073;49.166;8.076;2022-09-27T06:48:14;1.52;;;0.80;;
46365;SDS011;32073;49.166;8.076;2022-09-27T06:52:16;0.77;;;0.45;;
46365;SDS011;32073;49.166;8.076;2022-09-27T06:56:22;0.55;;;0.40;;
46365;SDS011;32073;49.166;8.076;2022-09-27T07:00:24;0.68;;;0.35;;
46365;SDS011;32073;49.166;8.076;2022-09-27T07:04:28;1.30;;;0.55;;
46365;SDS011;32073;49.166;8.076;2022-09-27T07:08:35;1.17;;;0.50;;
46365;SDS011;32073;49.166;8.076;2022-09-27T07:12:38;0.65;;;0.45;;
46365;SDS011;32073;49.166;8.076;2022-09-27T07:16:40;3.60;;;0.68;;
46365;SDS011;32073;49.166;8.076;2022-09-27T07:20:41;1.27;;;0.32;;
46365;SDS011;32073;49.166;8.076;2022-09-27T07:24:41;1.63;;;0.60;;
46365;SDS011;32073;49.166;8.076;2022-09-27T07:28:42;0.95;;;0.38;;
46365;SDS011;32073;49.166;8.076;2022-09-27T07:32:44;1.00;;;0.47;;
46365;SDS011;32073;49.166;8.076;2022-09-27T07:36:44;0.88;;;0.50;;
46365;SDS011;32073;49.166;8.076;2022-09-27T07:40:45;4.30;;;2.20;;
46365;SDS011;32073;49.166;8.076;2022-09-27T07:44:46;2.47;;;1.35;;
46365;SDS011;32073;49.166;8.076;2022-09-27T07:48:49;1.88;;;0.80;;
46365;SDS011;32073;49.166;8.076;2022-09-27T07:52:51;3.95;;;2.10;;
46365;SDS011;32073;49.166;8.076;2022-09-27T07:56:52;2.10;;;0.70;;
46365;SDS011;32073;49.166;8.076;2022-09-27T08:00:54;2.08;;;0.93;;
46365;SDS011;32073;49.166;8.076;2022-09-27T08:04:55;4.55;;;1.83;;
46365;SDS011;32073;49.166;8.076;2022-09-27T08:08:56;4.50;;;1.25;;
46365;SDS011;32073;49.166;8.076;2022-09-27T08:13:01;6.00;;;1.00;;
46365;SDS011;32073;49.166;8.076;2022-09-27T08:17:03;4.47;;;1.27;;
46365;SDS011;32073;49.166;8.076;2022-09-27T08:21:04;2.33;;;0.73;;
46365;SDS011;32073;49.166;8.076;2022-09-27T08:25:05;2.85;;;0.90;;
46365;SDS011;32073;49.166;8.076;2022-09-27T08:29:06;1.58;;;0.70;;
46365;SDS011;32073;49.166;8.076;2022-09-27T08:33:07;2.10;;;0.80;;
46365;SDS011;32073;49.166;8.076;2022-09-27T08:37:08;3.05;;;0.88;;
46365;SDS011;32073;49.166;8.076;2022-09-27T08:41:20;1.60;;;0.65;;
46365;SDS011;32073;49.166;8.076;2022-09-27T08:50:34;2.22;;;0.60;;
46365;SDS011;32073;49.166;8.076;2022-09-27T08:54:43;4.72;;;1.05;;
46365;SDS011;32073;49.166;8.076;2022-09-27T09:02:55;3.05;;;0.95;;
46365;SDS011;32073;49.166;8.076;2022-09-27T09:12:00;5.28;;;0.90;;
46365;SDS011;32073;49.166;8.076;2022-09-27T09:34:24;3.20;;;1.00;;
46365;SDS011;32073;49.166;8.076;2022-09-27T09:38:41;4.32;;;1.10;;
46365;SDS011;32073;49.166;8.076;2022-09-27T09:47:37;1.75;;;0.80;;
46365;SDS011;32073;49.166;8.076;2022-09-27T09:51:43;2.97;;;0.77;;
46365;SDS011;32073;49.166;8.076;2022-09-27T09:55:51;0.95;;;0.52;;
46365;SDS011;32073;49.166;8.076;2022-09-27T10:00:00;1.58;;;1.00;;
46365;SDS011;32073;49.166;8.076;2022-09-27T10:04:19;4.20;;;0.80;;
46365;SDS011;32073;49.166;8.076;2022-09-27T10:08:31;3.13;;;1.00;;
46365;SDS011;32073;49.166;8.076;2022-09-27T10:12:33;2.67;;;1.30;;
46365;SDS011;32073;49.166;8.076;2022-09-27T10:16:35;30.52;;;13.02;;
46365;SDS011;32073;49.166;8.076;2022-09-27T10:20:45;11.02;;;4.43;;
46365;SDS011;32073;49.166;8.076;2022-09-27T10:29:12;1.50;;;0.68;;
46365;SDS011;32073;49.166;8.076;2022-09-27T10:33:37;1.85;;;0.40;;
46365;SDS011;32073;49.166;8.076;2022-09-27T10:42:31;1.35;;;0.90;;
46365;SDS011;32073;49.166;8.076;2022-09-27T10:46:35;7.13;;;3.33;;
46365;SDS011;32073;49.166;8.076;2022-09-27T10:50:37;1.58;;;0.82;;
46365;SDS011;32073;49.166;8.076;2022-09-27T10:54:40;1.58;;;0.70;;
46365;SDS011;32073;49.166;8.076;2022-09-27T10:58:44;2.42;;;1.00;;
46365;SDS011;32073;49.166;8.076;2022-09-27T11:02:49;1.65;;;0.40;;
46365;SDS011;32073;49.166;8.076;2022-09-27T11:07:15;1.08;;;0.40;;
46365;SDS011;32073;49.166;8.076;2022-09-27T11:11:23;1.05;;;0.40;;
46365;SDS011;32073;49.166;8.076;2022-09-27T11:15:27;0.77;;;0.60;;
46365;SDS011;32073;49.166;8.076;2022-09-27T11:24:01;1.65;;;1.00;;
46365;SDS011;32073;49.166;8.076;2022-09-27T11:59:25;1.92;;;0.70;;
46365;SDS011;32073;49.166;8.076;2022-09-27T12:08:18;0.93;;;0.30;;
46365;SDS011;32073;49.166;8.076;2022-09-27T12:12:32;0.50;;;0.30;;
46365;SDS011;32073;49.166;8.076;2022-09-27T12:16:36;0.47;;;0.40;;
46365;SDS011;32073;49.166;8.076;2022-09-27T12:20:39;1.88;;;0.57;;
46365;SDS011;32073;49.166;8.076;2022-09-27T12:24:42;1.20;;;0.80;;
46365;SDS011;32073;49.166;8.076;2022-09-27T12:28:58;2.40;;;1.15;;
46365;SDS011;32073;49.166;8.076;2022-09-27T12:37:25;1.40;;;0.57;;
46365;SDS011;32073;49.166;8.076;2022-09-27T12:41:32;1.83;;;0.35;;
46365;SDS011;32073;49.166;8.076;2022-09-27T12:55:31;1.15;;;0.40;;
46365;SDS011;32073;49.166;8.076;2022-09-27T12:59:18;0.70;;;0.30;;
46365;SDS011;32073;49.166;8.076;2022-09-27T13:03:42;1.67;;;0.30;;
46365;SDS011;32073;49.166;8.076;2022-09-27T13:12:52;0.30;;;0.13;;
46365;SDS011;32073;49.166;8.076;2022-09-27T13:16:54;1.20;;;0.20;;
46365;SDS011;32073;49.166;8.076;2022-09-27T14:41:11;4.45;;;1.20;;
46365;SDS011;32073;49.166;8.076;2022-09-27T14:45:20;4.18;;;0.90;;
46365;SDS011;32073;49.166;8.076;2022-09-27T14:54:29;5.60;;;3.83;;
46365;SDS011;32073;49.166;8.076;2022-09-27T14:58:30;2.40;;;2.20;;
46365;SDS011;32073;49.166;8.076;2022-09-27T15:02:31;1.20;;;0.80;;
46365;SDS011;32073;49.166;8.076;2022-09-27T15:06:36;1.20;;;1.10;;
46365;SDS011;32073;49.166;8.076;2022-09-27T15:10:37;3.83;;;1.20;;
46365;SDS011;32073;49.166;8.076;2022-09-27T15:14:38;1.13;;;1.02;;
46365;SDS011;32073;49.166;8.076;2022-09-27T16:15:54;3.83;;;1.20;;
46365;SDS011;32073;49.166;8.076;2022-09-27T16:19:56;34.05;;;21.63;;
46365;SDS011;32073;49.166;8.076;2022-09-27T16:23:57;47.22;;;28.08;;
46365;SDS011;32073;49.166;8.076;2022-09-27T16:28:02;36.30;;;28.00;;
46365;SDS011;32073;49.166;8.076;2022-09-27T16:32:04;7.97;;;6.30;;
46365;SDS011;32073;49.166;8.076;2022-09-27T16:36:06;12.25;;;7.45;;
46365;SDS011;32073;49.166;8.076;2022-09-27T16:40:15;6.85;;;4.28;;
46365;SDS011;32073;49.166;8.076;2022-09-27T16:44:19;6.28;;;3.83;;
46365;SDS011;32073;49.166;8.076;2022-09-27T16:48:20;5.00;;;3.13;;
46365;SDS011;32073;49.166;8.076;2022-09-27T16:52:20;40.35;;;21.88;;
46365;SDS011;32073;49.166;8.076;2022-09-27T16:56:21;213.18;;;111.57;;
46365;SDS011;32073;49.166;8.076;2022-09-27T17:00:22;104.18;;;59.15;;
46365;SDS011;32073;49.166;8.076;2022-09-27T17:04:26;33.70;;;20.35;;
46365;SDS011;32073;49.166;8.076;2022-09-27T17:08:27;12.10;;;7.65;;
46365;SDS011;32073;49.166;8.076;2022-09-27T17:12:29;18.02;;;9.57;;
46365;SDS011;32073;49.166;8.076;2022-09-27T17:16:31;6.18;;;3.25;;
46365;SDS011;32073;49.166;8.076;2022-09-27T17:20:32;3.08;;;2.00;;
46365;SDS011;32073;49.166;8.076;2022-09-27T17:24:33;5.22;;;1.15;;
46365;SDS011;32073;49.166;8.076;2022-09-27T17:28:34;1.88;;;0.80;;
46365;SDS011;32073;49.166;8.076;2022-09-27T17:32:35;1.42;;;0.80;;
46365;SDS011;32073;49.166;8.076;2022-09-27T17:36:38;1.63;;;1.20;;
46365;SDS011;32073;49.166;8.076;2022-09-27T17:40:41;1.88;;;1.33;;
46365;SDS011;32073;49.166;8.076;2022-09-27T17:44:41;4.00;;;2.10;;
46365;SDS011;32073;49.166;8.076;2022-09-27T17:48:42;3.15;;;2.08;;
46365;SDS011;32073;49.166;8.076;2022-09-27T17:57:02;2.45;;;1.00;;
46365;SDS011;32073;49.166;8.076;2022-09-27T18:01:03;2.28;;;0.90;;
46365;SDS011;32073;49.166;8.076;2022-09-27T18:05:06;3.83;;;1.70;;
46365;SDS011;32073;49.166;8.076;2022-09-27T18:09:07;4.38;;;2.10;;
46365;SDS011;32073;49.166;8.076;2022-09-27T18:13:10;3.22;;;1.20;;
46365;SDS011;32073;49.166;8.076;2022-09-27T18:17:11;14.32;;;10.50;;
46365;SDS011;32073;49.166;8.076;2022-09-27T18:21:14;8.82;;;7.90;;
46365;SDS011;32073;49.166;8.076;2022-09-27T18:25:20;23.42;;;17.80;;
46365;SDS011;32073;49.166;8.076;2022-09-27T18:29:24;5.70;;;4.70;;
46365;SDS011;32073;49.166;8.076;2022-09-27T18:33:24;6.07;;;4.95;;
46365;SDS011;32073;49.166;8.076;2022-09-27T18:37:25;6.45;;;4.13;;
46365;SDS011;32073;49.166;8.076;2022-09-27T18:41:29;4.95;;;2.63;;
46365;SDS011;32073;49.166;8.076;2022-09-27T18:45:35;4.35;;;1.52;;
46365;SDS011;32073;49.166;8.076;2022-09-27T18:49:37;3.55;;;1.80;;
46365;SDS011;32073;49.166;8.076;2022-09-27T18:53:38;3.00;;;1.40;;
46365;SDS011;32073;49.166;8.076;2022-09-27T18:57:38;6.82;;;3.17;;
46365;SDS011;32073;49.166;8.076;2022-09-27T19:01:40;3.65;;;1.65;;
46365;SDS011;32073;49.166;8.076;2022-09-27T19:05:51;6.25;;;2.40;;
46365;SDS011;32073;49.166;8.076;2022-09-27T19:10:04;20.80;;;8.00;;
46365;SDS011;32073;49.166;8.076;2022-09-27T19:14:05;11.82;;;4.95;;
46365;SDS011;32073;49.166;8.076;2022-09-27T19:18:06;16.30;;;5.35;;
46365;SDS011;32073;49.166;8.076;2022-09-27T19:22:07;3.53;;;2.08;;
46365;SDS011;32073;49.166;8.076;2022-09-27T19:26:10;3.22;;;1.50;;
46365;SDS011;32073;49.166;8.076;2022-09-27T19:30:14;2.90;;;1.13;;
46365;SDS011;32073;49.166;8.076;2022-09-27T19:34:14;13.15;;;5.05;;
46365;SDS011;32073;49.166;8.076;2022-09-27T19:38:15;2.90;;;1.60;;
46365;SDS011;32073;49.166;8.076;2022-09-27T19:42:16;11.07;;;5.35;;
46365;SDS011;32073;49.166;8.076;2022-09-27T19:46:18;13.68;;;7.00;;
46365;SDS011;32073;49.166;8.076;2022-09-27T19:50:20;10.07;;;4.43;;
46365;SDS011;32073;49.166;8.076;2022-09-27T19:54:22;10.32;;;4.47;;
46365;SDS011;32073;49.166;8.076;2022-09-27T19:58:23;8.43;;;5.03;;
46365;SDS011;32073;49.166;8.076;2022-09-27T20:02:25;12.23;;;8.23;;
46365;SDS011;32073;49.166;8.076;2022-09-27T20:06:26;15.15;;;8.93;;
46365;SDS011;32073;49.166;8.076;2022-09-27T20:10:26;7.30;;;3.03;;
46365;SDS011;32073;49.166;8.076;2022-09-27T20:14:27;4.00;;;2.17;;
46365;SDS011;32073;49.166;8.076;2022-09-27T20:18:28;3.38;;;2.17;;
46365;SDS011;32073;49.166;8.076;2022-09-27T20:22:29;10.98;;;5.60;;
46365;SDS011;32073;49.166;8.076;2022-09-27T20:26:30;3.83;;;2.70;;
46365;SDS011;32073;49.166;8.076;2022-09-27T20:30:33;14.15;;;7.47;;
46365;SDS011;32073;49.166;8.076;2022-09-27T20:34:34;65.30;;;27.95;;
46365;SDS011;32073;49.166;8.076;2022-09-27T20:38:35;101.70;;;43.88;;
46365;SDS011;32073;49.166;8.076;2022-09-27T20:42:35;57.40;;;30.08;;
46365;SDS011;32073;49.166;8.076;2022-09-27T20:46:37;24.98;;;15.85;;
46365;SDS011;32073;49.166;8.076;2022-09-27T20:50:39;13.43;;;7.95;;
46365;SDS011;32073;49.166;8.076;2022-09-27T20:54:40;12.15;;;6.30;;
46365;SDS011;32073;49.166;8.076;2022-09-27T20:58:41;16.27;;;8.75;;
46365;SDS011;32073;49.166;8.076;2022-09-27T21:02:42;7.00;;;3.67;;
46365;SDS011;32073;49.166;8.076;2022-09-27T21:06:42;5.65;;;3.38;;
46365;SDS011;32073;49.166;8.076;2022-09-27T21:10:43;9.43;;;5.43;;
46365;SDS011;32073;49.166;8.076;2022-09-27T21:14:44;11.63;;;7.53;;
46365;SDS011;32073;49.166;8.076;2022-09-27T21:18:47;5.68;;;2.85;;
46365;SDS011;32073;49.166;8.076;2022-09-27T21:22:52;2.80;;;1.70;;
46365;SDS011;32073;49.166;8.076;2022-09-27T21:26:52;9.73;;;4.40;;
46365;SDS011;32073;49.166;8.076;2022-09-27T21:30:53;8.63;;;3.63;;
46365;SDS011;32073;49.166;8.076;2022-09-27T21:34:54;4.72;;;2.00;;
46365;SDS011;32073;49.166;8.076;2022-09-27T21:38:54;2.22;;;1.42;;
46365;SDS011;32073;49.166;8.076;2022-09-27T21:42:56;2.33;;;1.30;;
46365;SDS011;32073;49.166;8.076;2022-09-27T21:46:56;2.47;;;1.00;;
46365;SDS011;32073;49.166;8.076;2022-09-27T21:51:04;2.17;;;1.23;;
46365;SDS011;32073;49.166;8.076;2022-09-27T21:55:26;4.07;;;1.55;;
46365;SDS011;32073;49.166;8.076;2022-09-27T21:59:27;3.10;;;1.17;;
46365;SDS011;32073;49.166;8.076;2022-09-27T22:03:28;1.67;;;1.10;;
46365;SDS011;32073;49.166;8.076;2022-09-27T22:07:29;1.65;;;1.08;;
46365;SDS011;32073;49.166;8.076;2022-09-27T22:11:30;1.80;;;0.90;;
46365;SDS011;32073;49.166;8.076;2022-09-27T22:15:35;2.30;;;1.33;;
46365;SDS011;32073;49.166;8.076;2022-09-27T22:19:36;3.63;;;1.50;;
46365;SDS011;32073;49.166;8.076;2022-09-27T22:23:37;2.53;;;1.67;;
46365;SDS011;32073;49.166;8.076;2022-09-27T22:27:38;2.55;;;1.52;;
46365;SDS011;32073;49.166;8.076;2022-09-27T22:31:39;1.98;;;0.95;;
46365;SDS011;32073;49.166;8.076;2022-09-27T22:35:45;1.67;;;1.10;;
46365;SDS011;32073;49.166;8.076;2022-09-27T22:39:47;1.77;;;1.13;;
46365;SDS011;32073;49.166;8.076;2022-09-27T22:43:48;2.92;;;1.02;;
46365;SDS011;32073;49.166;8.076;2022-09-27T22:47:48;1.17;;;0.88;;
46365;SDS011;32073;49.166;8.076;2022-09-27T22:51:50;1.52;;;0.77;;
46365;SDS011;32073;49.166;8.076;2022-09-27T23:00:09;2.90;;;0.80;;
46365;SDS011;32073;49.166;8.076;2022-09-27T23:04:11;1.48;;;1.05;;
46365;SDS011;32073;49.166;8.076;2022-09-27T23:08:13;2.00;;;0.80;;
46365;SDS011;32073;49.166;8.076;2022-09-27T23:12:15;1.33;;;0.60;;
46365;SDS011;32073;49.166;8.076;2022-09-27T23:16:16;1.20;;;0.57;;
46365;SDS011;32073;49.166;8.076;2022-09-27T23:20:19;1.30;;;1.08;;
46365;SDS011;32073;49.166;8.076;2022-09-27T23:24:20;1.17;;;0.80;;
46365;SDS011;32073;49.166;8.076;2022-09-27T23:28:22;1.70;;;0.65;;
46365;SDS011;32073;49.166;8.076;2022-09-27T23:32:23;2.15;;;1.00;;
46365;SDS011;32073;49.166;8.076;2022-09-27T23:36:24;1.08;;;0.80;;
46365;SDS011;32073;49.166;8.076;2022-09-27T23:40:26;0.90;;;0.60;;
46365;SDS011;32073;49.166;8.076;2022-09-27T23:44:27;1.55;;;0.50;;
46365;SDS011;32073;49.166;8.076;2022-09-27T23:48:28;1.27;;;0.65;;
46365;SDS011;32073;49.166;8.076;2022-09-27T23:52:28;1.55;;;0.68;;
46365;SDS011;32073;49.166;8.076;2022-09-27T23:56:29;3.00;;;0.60;;
